Time;durP1;ratioP1;P1;durP2;ratioP2;P2;SDS_P1;SDS_P2;PMS_P1;PMS_P2;Temp;Humidity;BMP_temperature;BMP_pressure;BME280_temperature;BME280_humidity;BME280_pressure;Samples;Min_cycle;Max_cycle;Signal;HPM_P1;HPM_P2
2023/03/14 00:00:56;;;;;;;;;3.00;1.00;;;;;15.42;100.00;99156.97;4996027;28;45383;-82
2023/03/14 00:03:21;;;;;;;;;4.00;2.67;;;;;15.42;100.00;99157.81;4996578;28;45447;-82
2023/03/14 00:05:47;;;;;;;;;1.67;1.00;;;;;15.27;100.00;99145.50;4995379;28;45448;-81
2023/03/14 00:08:12;;;;;;;;;2.00;2.00;;;;;15.36;100.00;99153.22;4997586;28;44887;-81
2023/03/14 00:10:38;;;;;;;;;3.67;2.00;;;;;15.40;100.00;99135.31;4992835;28;48570;-81
2023/03/14 00:13:03;;;;;;;;;2.00;1.00;;;;;15.48;100.00;99137.81;4995500;28;45408;-81
2023/03/14 00:15:29;;;;;;;;;1.67;0.00;;;;;15.39;100.00;99135.53;4996628;28;45245;-81
2023/03/14 00:17:54;;;;;;;;;3.00;0.67;;;;;15.37;100.00;99124.78;4998720;28;45194;-82
2023/03/14 00:20:19;;;;;;;;;1.67;0.33;;;;;15.49;100.00;99120.28;4994742;28;48493;-80
2023/03/14 00:22:45;;;;;;;;;0.67;0.67;;;;;15.48;100.00;99134.22;4989101;28;45317;-81
2023/03/14 00:25:11;;;;;;;;;0.00;0.00;;;;;15.30;100.00;99143.13;4988009;28;45414;-81
2023/03/14 00:27:37;;;;;;;;;1.00;1.00;;;;;15.31;100.00;99125.66;4999070;28;45576;-81
2023/03/14 00:30:04;;;;;;;;;0.00;0.00;;;;;15.04;100.00;99121.38;4991866;28;46145;-81
2023/03/14 00:32:29;;;;;;;;;1.00;0.00;;;;;14.97;100.00;99121.41;4994353;28;44834;-80
2023/03/14 00:34:55;;;;;;;;;0.00;0.00;;;;;15.11;100.00;99112.09;4990613;28;45375;-80
2023/03/14 00:37:20;;;;;;;;;0.00;0.00;;;;;15.26;100.00;99114.56;4993123;28;45391;-81
2023/03/14 00:39:45;;;;;;;;;0.00;0.00;;;;;15.12;100.00;99108.28;5007077;28;47055;-81
2023/03/14 00:42:11;;;;;;;;;0.00;0.00;;;;;15.28;100.00;99101.47;4989070;28;45413;-82
2023/03/14 00:44:36;;;;;;;;;3.33;0.67;;;;;15.34;100.00;99117.00;4988355;28;45300;-81
2023/03/14 00:47:01;;;;;;;;;0.67;0.00;;;;;15.35;100.00;99113.22;4989471;28;45415;-81
2023/03/14 00:49:27;;;;;;;;;0.67;0.00;;;;;15.31;100.00;99098.31;5010566;28;47095;-81
2023/03/14 00:51:52;;;;;;;;;3.00;0.00;;;;;15.12;100.00;99091.06;4989760;28;45190;-82
2023/03/14 00:54:19;;;;;;;;;4.00;1.00;;;;;15.31;100.00;99090.09;4987382;28;46377;-81
2023/03/14 00:56:44;;;;;;;;;0.67;0.67;;;;;15.22;100.00;99091.41;5005725;28;45430;-81
2023/03/14 00:59:09;;;;;;;;;1.67;1.00;;;;;15.39;100.00;99094.47;4990775;28;46735;-81
2023/03/14 01:01:35;;;;;;;;;1.00;1.00;;;;;15.30;100.00;99088.41;4992515;28;45505;-81
2023/03/14 01:04:00;;;;;;;;;0.00;0.00;;;;;15.33;100.00;99093.47;4992182;28;45166;-81
2023/03/14 01:06:28;;;;;;;;;2.67;1.00;;;;;15.34;100.00;99094.31;4996541;28;45452;-81
2023/03/14 01:08:54;;;;;;;;;0.33;0.33;;;;;15.32;100.00;99093.69;5020525;28;46917;-81
2023/03/14 01:11:28;;;;;;;;;4.00;1.00;;;;;15.18;100.00;99106.59;4995894;28;45426;-81
2023/03/14 01:13:53;;;;;;;;;1.00;1.00;;;;;15.34;100.00;99094.31;5003101;28;45408;-81
2023/03/14 01:16:21;;;;;;;;;0.67;0.67;;;;;15.31;100.00;99092.00;5022328;28;45335;-81
2023/03/14 01:18:46;;;;;;;;;1.00;1.00;;;;;15.46;100.00;99098.84;5021657;28;47836;-81
2023/03/14 01:21:27;;;;;;;;;2.67;0.00;;;;;15.22;100.00;99085.09;4991261;28;45289;-81
2023/03/14 01:23:54;;;;;;;;;0.67;0.00;;;;;15.34;100.00;99095.13;4995925;28;45418;-79
2023/03/14 01:26:24;;;;;;;;;2.00;1.00;;;;;15.29;100.00;99096.84;5005154;28;45633;-81
2023/03/14 01:28:51;;;;;;;;;2.33;1.00;;;;;15.12;100.00;99082.84;4988431;28;45490;-81
2023/03/14 01:31:17;;;;;;;;;3.00;1.33;;;;;15.19;100.00;99086.38;4988187;28;45261;-81
2023/03/14 01:33:44;;;;;;;;;2.33;2.00;;;;;15.27;100.00;99079.81;4990147;28;45328;-81
2023/03/14 01:36:10;;;;;;;;;3.00;1.00;;;;;15.24;100.00;99085.72;4989188;28;45345;-80
2023/03/14 01:38:37;;;;;;;;;2.33;1.00;;;;;15.42;100.00;99099.50;4990107;28;45294;-81
2023/03/14 01:41:04;;;;;;;;;1.00;1.00;;;;;15.31;100.00;99084.63;5010186;28;44770;-82
2023/03/14 01:43:30;;;;;;;;;3.33;1.00;;;;;15.16;100.00;99089.53;4988614;28;45364;-79
2023/03/14 01:46:04;;;;;;;;;3.00;0.00;;;;;15.17;100.00;99085.75;4988029;28;45285;-79
2023/03/14 01:48:43;;;;;;;;;0.00;0.00;;;;;15.34;100.00;99081.44;4986801;28;45284;-79
2023/03/14 01:51:14;;;;;;;;;4.67;3.00;;;;;15.32;100.00;99080.84;4988513;28;45494;-82
2023/03/14 01:53:42;;;;;;;;;1.00;1.00;;;;;15.36;100.00;99090.28;4988094;28;45491;-82
2023/03/14 01:56:11;;;;;;;;;0.00;0.00;;;;;15.57;100.00;99095.44;4986188;28;45378;-79
2023/03/14 01:58:39;;;;;;;;;1.00;1.00;;;;;15.56;100.00;99092.94;5019738;28;48274;-80
2023/03/14 02:01:04;;;;;;;;;2.00;0.33;;;;;15.48;100.00;99091.28;4994734;28;45267;-80
2023/03/14 02:03:38;;;;;;;;;0.00;0.00;;;;;15.53;100.00;99083.25;5026718;28;45271;-80
2023/03/14 02:06:07;;;;;;;;;3.00;1.00;;;;;15.47;100.00;99083.28;4994062;28;45482;-80
2023/03/14 02:08:33;;;;;;;;;1.33;1.00;;;;;15.53;100.00;99109.78;4983479;28;46078;-80
2023/03/14 02:10:58;;;;;;;;;0.67;0.67;;;;;15.51;100.00;99107.22;4996720;28;45710;-81
2023/03/14 02:13:24;;;;;;;;;2.33;1.33;;;;;15.54;100.00;99106.84;4991161;28;45486;-80
2023/03/14 02:15:50;;;;;;;;;2.00;0.00;;;;;15.46;100.00;99107.06;4985241;28;45295;-80
2023/03/14 02:18:16;;;;;;;;;2.00;0.67;;;;;15.37;100.00;99094.69;4986786;28;47126;-80
2023/03/14 02:20:42;;;;;;;;;0.00;0.00;;;;;15.53;100.00;99104.31;4989137;28;46301;-80
2023/03/14 02:23:08;;;;;;;;;0.67;0.00;;;;;15.39;100.00;99103.53;4987329;28;45407;-80
2023/03/14 02:25:44;;;;;;;;;2.33;1.00;;;;;15.51;100.00;99103.66;4986664;28;45487;-81
2023/03/14 02:28:10;;;;;;;;;0.00;0.00;;;;;15.52;100.00;99088.91;4986950;28;45440;-80
2023/03/14 02:30:35;;;;;;;;;2.67;0.67;;;;;15.33;100.00;99090.72;4987952;28;45286;-80
2023/03/14 02:33:07;;;;;;;;;2.00;1.00;;;;;14.99;100.00;99097.41;4985905;28;45251;-81
2023/03/14 02:35:48;;;;;;;;;0.33;0.33;;;;;15.09;100.00;99105.16;4988453;28;45514;-81
2023/03/14 02:38:25;;;;;;;;;0.00;0.00;;;;;15.11;100.00;99094.84;4996265;28;46867;-81
2023/03/14 02:40:51;;;;;;;;;1.00;0.00;;;;;15.21;100.00;99084.25;4993292;28;45344;-81
2023/03/14 02:43:16;;;;;;;;;1.33;0.00;;;;;15.33;100.00;99093.47;4988737;28;45544;-80
2023/03/14 02:45:43;;;;;;;;;1.00;1.00;;;;;15.46;100.00;99095.28;4986989;28;45234;-80
2023/03/14 02:48:14;;;;;;;;;1.00;1.00;;;;;15.45;100.00;99086.22;4987047;28;46523;-81
2023/03/14 02:50:40;;;;;;;;;0.00;0.00;;;;;15.47;100.00;99084.13;4993089;28;45293;-80
2023/03/14 02:53:06;;;;;;;;;0.00;0.00;;;;;15.56;100.00;99082.81;4985626;28;45525;-80
2023/03/14 02:55:31;;;;;;;;;0.00;0.00;;;;;15.43;100.00;99077.38;4984359;28;47347;-80
2023/03/14 02:57:57;;;;;;;;;1.00;0.00;;;;;15.45;100.00;99088.97;4983552;28;45239;-80
2023/03/14 03:00:22;;;;;;;;;0.67;0.67;;;;;15.30;100.00;99087.56;5014954;28;45695;-80
2023/03/14 03:02:47;;;;;;;;;0.00;0.00;;;;;15.17;100.00;99083.03;4986913;28;45448;-80
2023/03/14 03:05:13;;;;;;;;;0.00;0.00;;;;;15.27;100.00;99088.84;4983224;28;45237;-80
2023/03/14 03:07:38;;;;;;;;;0.67;0.00;;;;;15.19;100.00;99089.13;4981719;28;47306;-79
2023/03/14 03:10:04;;;;;;;;;0.00;0.00;;;;;15.23;100.00;99092.25;5014873;28;45367;-80
2023/03/14 03:12:29;;;;;;;;;1.00;1.00;;;;;15.31;100.00;99106.53;4998463;28;45352;-80
2023/03/14 03:14:55;;;;;;;;;1.00;1.00;;;;;15.31;100.00;99092.84;5015239;28;45374;-80
2023/03/14 03:17:20;;;;;;;;;4.33;0.00;;;;;15.08;100.00;99096.09;4998769;28;47365;-79
2023/03/14 03:19:46;;;;;;;;;1.67;1.00;;;;;15.12;100.00;99108.28;4982027;28;46075;-79
2023/03/14 03:22:11;;;;;;;;;0.00;0.00;;;;;15.26;100.00;99100.88;4983369;28;45224;-79
2023/03/14 03:24:36;;;;;;;;;0.00;0.00;;;;;15.25;100.00;99101.09;5014657;28;45494;-79
2023/03/14 03:27:02;;;;;;;;;0.00;0.00;;;;;15.28;100.00;99112.41;4982624;28;47528;-79
2023/03/14 03:29:27;;;;;;;;;0.00;0.00;;;;;15.29;100.00;99110.53;5013110;28;45978;-79
2023/03/14 03:31:53;;;;;;;;;1.00;1.00;;;;;15.13;100.00;99100.91;4998224;28;45498;-79
2023/03/14 03:34:18;;;;;;;;;0.00;0.00;;;;;15.16;100.00;99097.75;4981934;28;45534;-79
2023/03/14 03:36:43;;;;;;;;;2.33;1.00;;;;;15.13;100.00;99104.50;5013889;28;46860;-79
2023/03/14 03:39:09;;;;;;;;;0.00;0.00;;;;;15.24;100.00;99119.41;4983150;28;45358;-79
2023/03/14 03:41:34;;;;;;;;;0.00;0.00;;;;;15.33;100.00;99131.78;4981609;28;45454;-79
2023/03/14 03:43:59;;;;;;;;;0.00;0.00;;;;;15.28;100.00;99128.00;4983505;28;45367;-79
2023/03/14 03:46:25;;;;;;;;;0.00;0.00;;;;;15.23;100.00;99116.88;4982115;28;45403;-79
2023/03/14 03:48:58;;;;;;;;;0.00;0.00;;;;;15.26;100.00;99125.50;4982948;28;45415;-79
2023/03/14 03:51:23;;;;;;;;;0.00;0.00;;;;;15.31;100.00;99122.09;4981992;28;45555;-79
2023/03/14 03:53:48;;;;;;;;;0.00;0.00;;;;;15.28;100.00;99126.09;4983193;28;45613;-79
2023/03/14 03:56:14;;;;;;;;;0.33;0.33;;;;;15.24;100.00;99135.81;4997372;28;47157;-79
2023/03/14 03:58:39;;;;;;;;;1.00;1.00;;;;;15.16;100.00;99125.13;4982768;28;45303;-79
2023/03/14 04:01:09;;;;;;;;;0.00;0.00;;;;;15.18;100.00;99120.28;4982363;28;45260;-79
2023/03/14 04:03:35;;;;;;;;;1.67;0.00;;;;;15.32;100.00;99132.00;4997185;28;45513;-79
2023/03/14 04:06:08;;;;;;;;;0.00;0.00;;;;;15.24;100.00;99132.22;4981817;28;45282;-78
2023/03/14 04:08:33;;;;;;;;;0.00;0.00;;;;;15.06;100.00;99133.78;4982999;28;45330;-79
2023/03/14 04:11:00;;;;;;;;;2.00;0.00;;;;;15.09;100.00;99135.25;4980623;28;45362;-79
2023/03/14 04:13:27;;;;;;;;;0.00;0.00;;;;;15.22;100.00;99135.19;4981897;28;45301;-79
2023/03/14 04:15:53;;;;;;;;;0.00;0.00;;;;;15.22;100.00;99146.13;4981822;28;45470;-79
2023/03/14 04:18:19;;;;;;;;;0.00;0.00;;;;;15.12;100.00;99140.28;4997672;28;45883;-79
2023/03/14 04:20:45;;;;;;;;;1.00;0.00;;;;;15.17;100.00;99149.53;4980942;28;45407;-79
2023/03/14 04:23:10;;;;;;;;;0.33;0.00;;;;;15.12;100.00;99143.84;4983388;28;45517;-79
2023/03/14 04:25:36;;;;;;;;;0.00;0.00;;;;;15.06;100.00;99152.06;4981854;28;46709;-79
2023/03/14 04:28:01;;;;;;;;;0.67;0.00;;;;;15.03;100.00;99164.31;4982404;28;45458;-79
2023/03/14 04:30:27;;;;;;;;;0.00;0.00;;;;;15.15;100.00;99167.19;4995262;28;45441;-79
2023/03/14 04:32:52;;;;;;;;;0.00;0.00;;;;;14.87;100.00;99172.13;4983089;28;45525;-78
2023/03/14 04:35:17;;;;;;;;;0.00;0.00;;;;;15.03;100.00;99169.78;4981754;28;45468;-78
2023/03/14 04:37:43;;;;;;;;;0.00;0.00;;;;;15.11;100.00;99188.69;4992587;28;45591;-78
2023/03/14 04:40:09;;;;;;;;;0.00;0.00;;;;;15.04;100.00;99182.41;4982109;28;45392;-78
2023/03/14 04:42:34;;;;;;;;;0.00;0.00;;;;;15.05;100.00;99207.88;4997662;28;45280;-78
2023/03/14 04:45:00;;;;;;;;;0.00;0.00;;;;;15.07;100.00;99181.94;4981410;28;46478;-77
2023/03/14 04:47:26;;;;;;;;;0.00;0.00;;;;;14.93;100.00;99212.28;4982111;28;45349;-78
2023/03/14 04:49:51;;;;;;;;;0.00;0.00;;;;;14.92;100.00;99221.53;4982999;28;45326;-78
2023/03/14 04:52:16;;;;;;;;;0.67;0.00;;;;;14.58;100.00;99241.78;4986161;28;45245;-78
2023/03/14 04:54:42;;;;;;;;;1.67;0.00;;;;;14.45;100.00;99248.09;4985433;28;45442;-78
2023/03/14 04:57:07;;;;;;;;;1.67;1.00;;;;;13.78;100.00;99287.22;4986014;28;45598;-79
2023/03/14 04:59:32;;;;;;;;;0.00;0.00;;;;;13.64;100.00;99290.94;4987501;28;46038;-80
2023/03/14 05:01:58;;;;;;;;;0.67;0.67;;;;;13.74;100.00;99313.22;4984429;28;45255;-80
2023/03/14 05:04:23;;;;;;;;;0.00;0.00;;;;;13.67;100.00;99322.41;4990500;28;46714;-80
2023/03/14 05:06:48;;;;;;;;;1.00;1.00;;;;;13.61;100.00;99345.91;5016571;28;45394;-80
2023/03/14 05:09:15;;;;;;;;;3.00;1.00;;;;;13.69;100.00;99353.94;5009821;28;45477;-79
2023/03/14 05:11:40;;;;;;;;;2.00;2.00;;;;;13.19;100.00;99325.94;4989105;28;45178;-80
2023/03/14 05:14:05;;;;;;;;;7.67;2.00;;;;;13.54;100.00;99366.88;5010874;28;46734;-80
2023/03/14 05:16:31;;;;;;;;;5.33;4.00;;;;;13.68;100.00;99354.97;5016962;28;45362;-80
2023/03/14 05:18:56;;;;;;;;;3.33;2.00;;;;;13.23;100.00;99365.41;4987702;28;45657;-80
2023/03/14 05:21:21;;;;;;;;;3.00;1.00;;;;;12.94;100.00;99383.81;4987788;28;45400;-80
2023/03/14 05:23:47;;;;;;;;;2.67;2.00;;;;;13.01;100.00;99401.06;4985884;28;47385;-79
2023/03/14 05:26:12;;;;;;;;;7.33;6.67;;;;;12.84;100.00;99417.72;4991366;28;45310;-80
2023/03/14 05:28:37;;;;;;;;;4.67;2.00;;;;;12.96;100.00;99407.09;4987714;28;45393;-82
2023/03/14 05:31:07;;;;;;;;;6.33;6.33;;;;;13.13;100.00;99424.06;4986202;28;45397;-80
2023/03/14 05:33:32;;;;;;;;;9.33;8.00;;;;;13.23;100.00;99439.03;4985640;28;45400;-80
2023/03/14 05:35:58;;;;;;;;;1.00;1.00;;;;;13.10;100.00;99449.81;4985816;28;45337;-80
2023/03/14 05:38:23;;;;;;;;;4.00;4.00;;;;;13.16;100.00;99459.13;4985716;28;49708;-80
2023/03/14 05:40:48;;;;;;;;;4.00;3.00;;;;;13.40;100.00;99482.41;4984583;28;45283;-80
2023/03/14 05:43:14;;;;;;;;;3.00;2.33;;;;;13.00;100.00;99476.59;4986005;28;46303;-80
2023/03/14 05:45:40;;;;;;;;;3.67;2.00;;;;;13.03;100.00;99484.34;4984341;28;45639;-80
2023/03/14 05:48:06;;;;;;;;;9.00;9.00;;;;;13.01;100.00;99485.56;4986403;28;45449;-80
2023/03/14 05:50:31;;;;;;;;;5.00;5.00;;;;;13.12;100.00;99502.28;4985964;28;45325;-81
2023/03/14 05:52:56;;;;;;;;;9.67;5.00;;;;;13.16;100.00;99509.06;4985858;28;46337;-81
2023/03/14 05:55:22;;;;;;;;;4.67;3.33;;;;;12.87;100.00;99514.59;4986176;28;45353;-80
2023/03/14 05:57:47;;;;;;;;;4.33;4.00;;;;;12.89;100.00;99539.78;4987020;28;45468;-79
2023/03/14 06:00:13;;;;;;;;;4.33;3.00;;;;;12.92;100.00;99547.59;5015692;28;45298;-79
2023/03/14 06:02:38;;;;;;;;;3.00;3.00;;;;;13.07;100.00;99553.84;4995519;28;46930;-79
2023/03/14 06:05:04;;;;;;;;;5.00;4.00;;;;;12.71;100.00;99572.09;4984000;28;45281;-78
2023/03/14 06:07:29;;;;;;;;;7.00;7.00;;;;;12.91;100.00;99581.34;4984136;28;45565;-78
2023/03/14 06:09:55;;;;;;;;;4.67;4.00;;;;;12.97;100.00;99585.16;4983828;28;47345;-78
2023/03/14 06:12:20;;;;;;;;;4.00;2.33;;;;;12.58;100.00;99601.84;4983594;28;45590;-78
2023/03/14 06:14:45;;;;;;;;;3.67;3.67;;;;;12.54;100.00;99611.47;4983167;28;47337;-78
2023/03/14 06:17:11;;;;;;;;;3.00;3.00;;;;;12.51;100.00;99611.81;4984339;28;45239;-78
2023/03/14 06:19:36;;;;;;;;;1.67;1.67;;;;;12.39;100.00;99609.59;4983379;28;45395;-79
2023/03/14 06:22:01;;;;;;;;;8.33;3.33;;;;;12.33;100.00;99643.03;4983829;28;45534;-79
2023/03/14 06:24:27;;;;;;;;;5.00;4.33;;;;;12.42;100.00;99636.44;4981175;28;45602;-81
2023/03/14 06:26:52;;;;;;;;;9.67;3.67;;;;;12.23;100.00;99664.22;5013992;28;45348;-78
2023/03/14 06:29:17;;;;;;;;;7.33;4.00;;;;;12.27;100.00;99657.34;4987479;28;46507;-79
2023/03/14 06:31:43;;;;;;;;;5.00;5.00;;;;;12.26;100.00;99674.75;4997508;28;48060;-78
2023/03/14 06:34:08;;;;;;;;;9.00;8.00;;;;;12.13;100.00;99688.13;4983379;28;45478;-81
2023/03/14 06:36:34;;;;;;;;;7.33;7.00;;;;;12.41;100.00;99699.28;4982739;28;45328;-78
2023/03/14 06:38:59;;;;;;;;;5.00;5.00;;;;;12.27;100.00;99716.47;4983200;28;45333;-80
2023/03/14 06:41:25;;;;;;;;;9.67;4.67;;;;;12.34;100.00;99709.25;4981964;28;45647;-78
2023/03/14 06:43:51;;;;;;;;;7.00;7.00;;;;;12.10;100.00;99721.19;4981750;28;45327;-80
2023/03/14 06:46:17;;;;;;;;;8.33;4.00;;;;;12.16;100.00;99734.06;4981897;28;45478;-78
2023/03/14 06:48:42;;;;;;;;;7.00;3.33;;;;;12.39;100.00;99744.94;4982684;28;45538;-78
2023/03/14 06:51:08;;;;;;;;;7.00;4.00;;;;;12.50;100.00;99758.09;4981773;28;45470;-78
2023/03/14 06:53:33;;;;;;;;;4.67;4.67;;;;;12.47;100.00;99769.38;5014036;28;45455;-78
2023/03/14 06:55:58;;;;;;;;;7.00;5.00;;;;;12.21;100.00;99772.47;4967841;28;45464;-78
2023/03/14 06:58:24;;;;;;;;;2.67;2.33;;;;;12.11;100.00;99781.94;4982278;28;45403;-78
2023/03/14 07:00:49;;;;;;;;;3.00;3.00;;;;;12.24;100.00;99774.00;4982049;28;53841;-80
2023/03/14 07:03:14;;;;;;;;;7.67;5.00;;;;;12.35;100.00;99798.06;4982787;28;45436;-78
2023/03/14 07:05:43;;;;;;;;;4.33;2.67;;;;;12.40;100.00;99807.41;4981266;28;45381;-78
2023/03/14 07:08:08;;;;;;;;;4.00;4.00;;;;;12.30;100.00;99795.06;4981231;28;45607;-77
2023/03/14 07:10:34;;;;;;;;;4.33;4.33;;;;;12.38;100.00;99820.34;4996295;28;45643;-78
2023/03/14 07:12:59;;;;;;;;;5.67;5.00;;;;;12.09;100.00;99836.56;4981308;28;45380;-78
2023/03/14 07:15:25;;;;;;;;;4.00;3.00;;;;;11.82;100.00;99818.03;4980220;28;45846;-78
2023/03/14 07:17:50;;;;;;;;;4.00;3.00;;;;;11.92;100.00;99829.53;4981358;28;45606;-75
2023/03/14 07:20:16;;;;;;;;;4.00;3.00;;;;;11.98;100.00;99843.25;4980073;28;46654;-78
2023/03/14 07:22:42;;;;;;;;;3.00;3.00;;;;;12.06;100.00;99858.69;4981738;28;45328;-79
2023/03/14 07:25:09;;;;;;;;;2.33;2.33;;;;;12.14;100.00;99866.81;4981465;28;45317;-79
2023/03/14 07:27:34;;;;;;;;;7.00;5.33;;;;;12.25;100.00;99869.16;4982032;28;45397;-79
2023/03/14 07:29:59;;;;;;;;;2.67;2.67;;;;;12.03;100.00;99889.88;4980128;28;47952;-79
2023/03/14 07:32:25;;;;;;;;;5.00;2.00;;;;;12.01;100.00;99880.19;4985527;28;45165;-78
2023/03/14 07:34:50;;;;;;;;;3.33;3.00;;;;;12.28;100.00;99915.06;4984179;28;45511;-79
2023/03/14 07:37:16;;;;;;;;;6.33;3.33;;;;;12.32;100.00;99923.75;4994958;28;45388;-79
2023/03/14 07:39:41;;;;;;;;;2.00;1.67;;;;;12.09;100.00;99921.81;4980861;28;46201;-77
2023/03/14 07:42:06;;;;;;;;;2.33;2.33;;;;;12.12;100.00;99922.50;4981091;28;45200;-79
2023/03/14 07:44:32;;;;;;;;;3.00;3.00;;;;;12.37;100.00;99919.44;4981409;28;45494;-78
2023/03/14 07:46:58;;;;;;;;;2.00;2.00;;;;;12.43;100.00;99926.88;4982130;28;45427;-79
2023/03/14 07:49:23;;;;;;;;;2.00;1.67;;;;;12.35;100.00;99932.38;4981012;28;45505;-79
2023/03/14 07:51:48;;;;;;;;;6.33;2.33;;;;;12.52;100.00;99938.59;4981892;28;45372;-79
2023/03/14 07:54:14;;;;;;;;;7.67;3.33;;;;;12.65;100.00;99957.91;4982146;28;45425;-77
2023/03/14 07:56:40;;;;;;;;;4.67;4.67;;;;;12.66;100.00;99959.59;4981987;28;45329;-80
2023/03/14 07:59:05;;;;;;;;;5.00;4.00;;;;;12.79;100.00;99954.41;5013542;28;47179;-79
2023/03/14 08:01:31;;;;;;;;;7.33;3.00;;;;;12.85;100.00;99966.47;4981741;28;45587;-79
2023/03/14 08:03:56;;;;;;;;;5.00;4.00;;;;;13.27;100.00;99979.59;4981706;28;45300;-79
2023/03/14 08:06:22;;;;;;;;;6.67;4.00;;;;;13.48;100.00;99984.34;4981545;28;45499;-79
2023/03/14 08:08:47;;;;;;;;;8.00;4.00;;;;;13.75;100.00;99983.72;4980845;28;46127;-78
2023/03/14 08:11:12;;;;;;;;;5.00;2.67;;;;;13.97;100.00;99984.66;4981645;28;45322;-78
2023/03/14 08:13:38;;;;;;;;;1.00;1.00;;;;;13.86;100.00;99991.47;4980740;28;45418;-79
2023/03/14 08:16:04;;;;;;;;;3.33;3.00;;;;;13.54;100.00;100002.72;4978857;28;45718;-77
2023/03/14 08:18:29;;;;;;;;;3.67;3.67;;;;;14.09;100.00;100002.28;4980234;28;46930;-78
2023/03/14 08:20:55;;;;;;;;;3.33;2.67;;;;;13.98;100.00;100003.59;4978026;28;45502;-78
2023/03/14 08:23:21;;;;;;;;;4.67;3.33;;;;;14.11;100.00;100004.81;4981196;28;45410;-78
2023/03/14 08:25:49;;;;;;;;;1.00;1.00;;;;;14.34;100.00;100016.47;4975177;28;45349;-78
2023/03/14 08:28:14;;;;;;;;;0.67;0.67;;;;;14.12;100.00;100006.50;4983272;28;47688;-79
2023/03/14 08:30:39;;;;;;;;;3.00;1.33;;;;;14.31;100.00;100020.47;4985573;28;45344;-81
2023/03/14 08:33:05;;;;;;;;;4.00;2.00;;;;;14.21;100.00;100019.88;4985339;28;45288;-79
2023/03/14 08:35:30;;;;;;;;;4.67;4.00;;;;;14.43;100.00;100039.97;4984957;28;45388;-78
2023/03/14 08:37:55;;;;;;;;;4.00;3.33;;;;;14.75;100.00;100038.69;5016442;28;47158;-80
2023/03/14 08:40:21;;;;;;;;;3.33;2.67;;;;;15.14;100.00;100046.47;5015560;28;45287;-79
2023/03/14 08:42:46;;;;;;;;;2.33;2.00;;;;;14.97;100.00;100039.56;4984634;28;45339;-78
2023/03/14 08:45:14;;;;;;;;;6.00;3.00;;;;;14.97;100.00;100048.63;4985482;28;46205;-78
2023/03/14 08:47:40;;;;;;;;;6.33;4.00;;;;;15.13;100.00;100050.25;4984847;28;45539;-78
2023/03/14 08:50:06;;;;;;;;;5.67;3.00;;;;;15.51;100.00;100048.94;4984753;28;45336;-78
2023/03/14 08:52:32;;;;;;;;;5.00;3.00;;;;;15.60;100.00;100055.16;4985767;28;45280;-79
2023/03/14 08:54:58;;;;;;;;;4.67;3.33;;;;;15.20;100.00;100079.38;4984748;28;45437;-81
2023/03/14 08:57:27;;;;;;;;;3.33;3.00;;;;;15.79;100.00;100048.13;4984732;28;46455;-78
2023/03/14 08:59:54;;;;;;;;;4.33;4.33;;;;;15.80;100.00;100069.00;4985053;28;45647;-77
2023/03/14 09:02:19;;;;;;;;;5.67;2.33;;;;;15.97;100.00;100075.88;5016655;28;45421;-78
2023/03/14 09:04:44;;;;;;;;;5.33;2.33;;;;;15.75;100.00;100064.13;4983810;28;45716;-81
2023/03/14 09:07:09;;;;;;;;;0.00;0.00;;;;;15.46;100.00;100083.44;4984749;28;45404;-80
2023/03/14 09:09:35;;;;;;;;;5.33;4.00;;;;;15.49;100.00;100085.75;4984826;28;45263;-78
2023/03/14 09:12:00;;;;;;;;;2.67;2.00;;;;;15.27;100.00;100084.91;4984767;28;45213;-79
2023/03/14 09:14:26;;;;;;;;;5.00;2.00;;;;;14.98;100.00;100085.84;4984204;28;45308;-80
2023/03/14 09:16:51;;;;;;;;;5.00;4.00;;;;;14.58;100.00;100094.63;5016572;28;46956;-81
2023/03/14 09:19:17;;;;;;;;;4.33;2.00;;;;;14.67;100.00;100121.69;4986835;28;45408;-78
2023/03/14 09:21:42;;;;;;;;;2.67;1.00;;;;;14.31;100.00;100126.19;4984289;28;45285;-77
2023/03/14 09:24:07;;;;;;;;;5.67;4.33;;;;;14.19;100.00;100138.56;4984975;28;45458;-78
2023/03/14 09:26:33;;;;;;;;;3.00;3.00;;;;;13.96;100.00;100147.69;4982307;28;47765;-80
2023/03/14 09:28:58;;;;;;;;;4.00;1.00;;;;;13.38;100.00;100161.97;5016404;28;45409;-78
2023/03/14 09:31:23;;;;;;;;;2.00;2.00;;;;;13.31;100.00;100165.59;4996065;28;45372;-79
2023/03/14 09:33:49;;;;;;;;;1.00;1.00;;;;;13.31;100.00;100171.91;4999570;28;45379;-79
2023/03/14 09:36:14;;;;;;;;;1.00;1.00;;;;;13.47;100.00;100173.69;4983210;28;46085;-79
2023/03/14 09:38:40;;;;;;;;;1.00;1.00;;;;;13.20;100.00;100202.31;4984511;28;45454;-78
2023/03/14 09:41:15;;;;;;;;;2.33;2.00;;;;;13.06;100.00;100217.53;4995862;28;45586;-80
2023/03/14 09:43:42;;;;;;;;;2.00;2.00;;;;;12.86;100.00;100202.59;4981120;28;45313;-79
2023/03/14 09:46:11;;;;;;;;;6.67;3.00;;;;;13.16;100.00;100218.19;4984150;28;45530;-79
2023/03/14 09:48:36;;;;;;;;;6.33;3.00;;;;;13.23;100.00;100221.91;4984862;28;45526;-76
2023/03/14 09:51:06;;;;;;;;;4.00;2.67;;;;;13.94;100.00;100228.97;4982219;28;45372;-78
2023/03/14 09:53:39;;;;;;;;;2.00;2.00;;;;;14.28;100.00;100233.09;4985343;28;45428;-78
2023/03/14 09:56:12;;;;;;;;;5.00;3.00;;;;;14.62;100.00;100225.25;4983867;28;45529;-77
2023/03/14 09:58:42;;;;;;;;;4.00;3.00;;;;;14.49;100.00;100249.66;4983711;28;45262;-80
2023/03/14 10:01:13;;;;;;;;;2.00;0.33;;;;;14.06;100.00;100264.03;4983792;28;45371;-79
2023/03/14 10:03:39;;;;;;;;;0.00;0.00;;;;;13.10;100.00;100267.09;4981634;28;45293;-78
2023/03/14 10:06:12;;;;;;;;;0.00;0.00;;;;;12.90;100.00;100272.13;4982432;28;47075;-79
2023/03/14 10:08:43;;;;;;;;;0.33;0.33;;;;;13.15;100.00;100260.13;4982846;28;45758;-79
2023/03/14 10:11:18;;;;;;;;;3.00;1.67;;;;;12.87;100.00;100277.91;4980842;28;45427;-79
2023/03/14 10:14:06;;;;;;;;;0.00;0.00;;;;;12.69;100.00;100290.94;4984306;28;45497;-76
2023/03/14 10:16:34;;;;;;;;;0.67;0.00;;;;;12.68;100.00;100287.34;4981043;28;47278;-78
2023/03/14 10:19:06;;;;;;;;;1.67;1.67;;;;;12.79;100.00;100297.00;4983653;28;45418;-78
2023/03/14 10:21:38;;;;;;;;;1.33;1.33;;;;;13.16;100.00;100302.75;4981456;28;45321;-75
2023/03/14 10:24:21;;;;;;;;;2.67;0.33;;;;;13.51;100.00;100303.31;4984647;28;45447;-76
2023/03/14 10:26:55;;;;;;;;;2.00;0.00;;;;;13.21;100.00;100299.50;5024035;28;46871;-78
2023/03/14 10:29:23;;;;;;;;;8.33;3.00;;;;;13.69;100.00;100311.22;4983166;28;45491;-77
2023/03/14 10:31:58;;;;;;;;;2.00;0.67;;;;;13.57;100.00;100308.03;5014471;28;45330;-78
2023/03/14 10:34:33;;;;;;;;;4.00;0.67;;;;;13.57;100.00;100311.63;4982419;28;45516;-76
2023/03/14 10:37:06;;;;;;;;;1.33;1.00;;;;;13.97;100.00;100315.97;4982843;28;45608;-77
2023/03/14 10:39:48;;;;;;;;;4.00;2.67;;;;;13.89;100.00;100324.22;4982933;28;45667;-77
2023/03/14 10:42:16;;;;;;;;;1.00;1.00;;;;;14.33;100.00;100334.50;4983054;28;45419;-78
2023/03/14 10:44:42;;;;;;;;;4.00;1.33;;;;;14.40;100.00;100324.56;4982664;28;45592;-78
2023/03/14 10:47:18;;;;;;;;;1.00;1.00;;;;;14.72;100.00;100323.44;5013966;28;46649;-78
2023/03/14 10:49:43;;;;;;;;;2.33;1.00;;;;;14.92;100.00;100329.22;4981848;28;45321;-76
2023/03/14 10:52:08;;;;;;;;;1.00;1.00;;;;;14.88;100.00;100341.59;4953367;28;45623;-78
2023/03/14 10:54:34;;;;;;;;;1.33;1.00;;;;;15.10;100.00;100332.47;4961100;28;45278;-77
2023/03/14 10:57:03;;;;;;;;;5.00;3.33;;;;;15.23;100.00;100340.00;4962196;28;48497;-77
2023/03/14 10:59:35;;;;;;;;;3.00;0.00;;;;;15.22;94.37;100333.69;4977955;28;45619;-78
2023/03/14 11:02:20;;;;;;;;;5.33;2.67;;;;;15.46;95.33;100348.97;4960415;28;45401;-77
2023/03/14 11:05:12;;;;;;;;;3.67;2.00;;;;;15.54;94.31;100346.19;4966239;28;45530;-76
2023/03/14 11:07:44;;;;;;;;;3.00;1.00;;;;;15.76;97.16;100330.66;4967132;28;45524;-79
2023/03/14 11:10:21;;;;;;;;;3.33;1.00;;;;;16.29;98.09;100332.09;4965620;28;45347;-80
2023/03/14 11:13:10;;;;;;;;;2.00;2.00;;;;;15.98;86.53;100362.53;4965405;28;45735;-81
2023/03/14 11:16:08;;;;;;;;;0.00;0.00;;;;;15.93;90.13;100352.13;4982049;28;45300;-80
2023/03/14 11:18:58;;;;;;;;;10.33;2.33;;;;;15.32;88.23;100367.09;4968374;28;45531;-78
2023/03/14 11:21:35;;;;;;;;;1.67;1.67;;;;;15.78;91.35;100364.19;4964365;28;45434;-78
2023/03/14 11:24:31;;;;;;;;;3.00;1.00;;;;;15.62;87.41;100367.13;4966776;28;45243;-79